DAL2694 KLGA-KMCO
Flight info
| Callsign | DAL2694 |
|---|---|
| Flight time | 2h 8m |
| Altitude | 36000 |
| Route | WHITE Q409 CRPLR Q85 LPERD SNFLD3 |
| Aircraft | A321/M-SDE3FGHIRWY/LB1 |
Departure
| Time | 2026-04-22 14:00 |
|---|---|
| Airport | LaGuardia Airport (KLGA) |
Arrival
| Time | 2026-04-22 16:08 |
|---|---|
| Airport | Orlando International Airport (KMCO) |
| Time | Latitude | Longitude | Altitude | Speed | Heading |
|---|---|---|---|---|---|
| 2026-04-22 13:41 | 40.76993 | -73.86146 | 20 ft | 0 kts | 132° |
| 2026-04-22 13:47 | 40.77002 | -73.86162 | 19 ft | 3 kts | 109° |
| 2026-04-22 13:48 | 40.77005 | -73.86187 | 20 ft | 3 kts | 78° |
| 2026-04-22 13:48 | 40.76998 | -73.86211 | 22 ft | 3 kts | 47° |
| 2026-04-22 13:48 | 40.76986 | -73.86227 | 21 ft | 1 kts | 43° |
| 2026-04-22 13:48 | 40.76985 | -73.86228 | 21 ft | 0 kts | 43° |
| 2026-04-22 13:52 | 40.77005 | -73.86203 | 20 ft | 7 kts | 43° |
| 2026-04-22 13:52 | 40.77042 | -73.86159 | 19 ft | 9 kts | 43° |
| 2026-04-22 13:52 | 40.77089 | -73.86101 | 19 ft | 9 kts | 42° |
| 2026-04-22 13:53 | 40.77132 | -73.86050 | 18 ft | 9 kts | 42° |
| 2026-04-22 13:53 | 40.77182 | -73.86056 | 12 ft | 10 kts | 309° |
| 2026-04-22 13:53 | 40.77208 | -73.86107 | 11 ft | 2 kts | 304° |
| 2026-04-22 13:53 | 40.77228 | -73.86118 | 11 ft | 4 kts | 360° |
| 2026-04-22 13:54 | 40.77260 | -73.86097 | 12 ft | 6 kts | 22° |
| 2026-04-22 13:54 | 40.77291 | -73.86121 | 13 ft | 7 kts | 306° |
| 2026-04-22 13:54 | 40.77329 | -73.86200 | 13 ft | 14 kts | 302° |
| 2026-04-22 13:54 | 40.77376 | -73.86300 | 13 ft | 12 kts | 302° |
| 2026-04-22 13:55 | 40.77422 | -73.86395 | 13 ft | 15 kts | 302° |
| 2026-04-22 13:55 | 40.77488 | -73.86535 | 12 ft | 18 kts | 301° |
| 2026-04-22 13:55 | 40.77553 | -73.86671 | 12 ft | 17 kts | 302° |
| 2026-04-22 13:55 | 40.77612 | -73.86795 | 12 ft | 15 kts | 302° |
| 2026-04-22 13:56 | 40.77666 | -73.86908 | 12 ft | 15 kts | 302° |
| 2026-04-22 13:56 | 40.77718 | -73.87018 | 13 ft | 13 kts | 302° |
| 2026-04-22 13:56 | 40.77776 | -73.87138 | 13 ft | 18 kts | 302° |
| 2026-04-22 13:56 | 40.77839 | -73.87271 | 13 ft | 16 kts | 302° |
| 2026-04-22 13:57 | 40.77896 | -73.87390 | 14 ft | 14 kts | 302° |
| 2026-04-22 13:57 | 40.77943 | -73.87489 | 16 ft | 12 kts | 302° |
| 2026-04-22 13:57 | 40.77994 | -73.87597 | 15 ft | 15 kts | 302° |
| 2026-04-22 13:57 | 40.78048 | -73.87707 | 16 ft | 13 kts | 302° |
| 2026-04-22 13:58 | 40.78090 | -73.87796 | 17 ft | 10 kts | 302° |
| 2026-04-22 13:58 | 40.78134 | -73.87856 | 18 ft | 11 kts | 340° |
| 2026-04-22 13:58 | 40.78206 | -73.87853 | 19 ft | 9 kts | 32° |
| 2026-04-22 13:58 | 40.78206 | -73.87805 | 18 ft | 6 kts | 119° |
| 2026-04-22 13:59 | 40.78201 | -73.87796 | 20 ft | 0 kts | 122° |
| 2026-04-22 13:59 | 40.78166 | -73.87721 | 17 ft | 41 kts | 122° |
| 2026-04-22 13:59 | 40.77870 | -73.87099 | 15 ft | 115 kts | 122° |
| 2026-04-22 13:59 | 40.77363 | -73.86027 | 270 ft | 146 kts | 124° |
| 2026-04-22 14:00 | 40.76733 | -73.84998 | 1000 ft | 145 kts | 150° |
| 2026-04-22 14:00 | 40.75819 | -73.84512 | 1782 ft | 140 kts | 166° |
| 2026-04-22 14:00 | 40.74862 | -73.84159 | 2108 ft | 149 kts | 168° |
| 2026-04-22 14:00 | 40.73805 | -73.83769 | 2288 ft | 168 kts | 168° |
| 2026-04-22 14:01 | 40.72607 | -73.83314 | 2454 ft | 190 kts | 168° |
| 2026-04-22 14:01 | 40.71255 | -73.82865 | 2692 ft | 207 kts | 178° |
| 2026-04-22 14:01 | 40.69823 | -73.83013 | 3374 ft | 209 kts | 198° |
| 2026-04-22 14:01 | 40.68489 | -73.83817 | 4002 ft | 215 kts | 213° |
| 2026-04-22 14:02 | 40.67613 | -73.84510 | 4439 ft | 220 kts | 213° |
| 2026-04-22 14:02 | 40.66279 | -73.85554 | 5094 ft | 226 kts | 214° |
| 2026-04-22 14:02 | 40.64892 | -73.86635 | 5578 ft | 241 kts | 214° |
| 2026-04-22 14:02 | 40.63390 | -73.87804 | 6009 ft | 257 kts | 214° |
| 2026-04-22 14:03 | 40.61830 | -73.89011 | 6707 ft | 263 kts | 214° |
| 2026-04-22 14:03 | 40.60244 | -73.90242 | 7424 ft | 266 kts | 214° |
| 2026-04-22 14:03 | 40.58642 | -73.91491 | 8154 ft | 270 kts | 214° |
| 2026-04-22 14:03 | 40.56971 | -73.92648 | 8877 ft | 274 kts | 210° |
| 2026-04-22 14:04 | 40.55227 | -73.93706 | 9606 ft | 278 kts | 208° |
| 2026-04-22 14:04 | 40.53450 | -73.94741 | 10304 ft | 282 kts | 208° |
| 2026-04-22 14:04 | 40.51596 | -73.95810 | 10610 ft | 299 kts | 208° |
| 2026-04-22 14:04 | 40.49641 | -73.96936 | 10931 ft | 314 kts | 208° |
| 2026-04-22 14:05 | 40.47588 | -73.98119 | 11245 ft | 329 kts | 208° |
| 2026-04-22 14:05 | 40.45447 | -73.99357 | 11595 ft | 343 kts | 208° |
| 2026-04-22 14:05 | 40.41012 | -74.01912 | 12771 ft | 352 kts | 208° |
| 2026-04-22 14:06 | 40.38755 | -74.03208 | 13422 ft | 356 kts | 208° |
| 2026-04-22 14:06 | 40.36475 | -74.04521 | 14048 ft | 360 kts | 209° |
| 2026-04-22 14:06 | 40.34176 | -74.05849 | 14609 ft | 363 kts | 209° |
| 2026-04-22 14:06 | 40.31850 | -74.07196 | 15175 ft | 367 kts | 209° |
| 2026-04-22 14:07 | 40.29504 | -74.08554 | 15739 ft | 370 kts | 209° |
| 2026-04-22 14:07 | 40.27138 | -74.09924 | 16302 ft | 373 kts | 209° |
| 2026-04-22 14:07 | 40.24750 | -74.11304 | 16851 ft | 377 kts | 209° |
| 2026-04-22 14:07 | 40.22342 | -74.12694 | 17403 ft | 380 kts | 209° |
| 2026-04-22 14:08 | 40.19913 | -74.14095 | 17939 ft | 384 kts | 209° |
| 2026-04-22 14:08 | 40.17460 | -74.15508 | 18463 ft | 387 kts | 210° |
| 2026-04-22 14:08 | 40.14984 | -74.16933 | 18914 ft | 390 kts | 210° |
| 2026-04-22 14:08 | 40.12493 | -74.18365 | 19354 ft | 393 kts | 210° |
| 2026-04-22 14:09 | 40.09979 | -74.19806 | 19809 ft | 396 kts | 210° |
| 2026-04-22 14:09 | 40.07447 | -74.21254 | 20248 ft | 399 kts | 210° |
| 2026-04-22 14:09 | 40.04896 | -74.22714 | 20686 ft | 402 kts | 210° |
| 2026-04-22 14:09 | 40.02332 | -74.24189 | 21126 ft | 404 kts | 211° |
| 2026-04-22 14:10 | 39.99876 | -74.25928 | 21545 ft | 400 kts | 220° |
| 2026-04-22 14:10 | 39.97619 | -74.28047 | 21968 ft | 400 kts | 223° |
| 2026-04-22 14:10 | 39.95368 | -74.30204 | 22409 ft | 403 kts | 223° |
| 2026-04-22 14:10 | 39.93100 | -74.32371 | 22839 ft | 406 kts | 223° |
| 2026-04-22 14:11 | 39.90813 | -74.34551 | 23267 ft | 408 kts | 223° |
| 2026-04-22 14:11 | 39.88510 | -74.36735 | 23679 ft | 411 kts | 223° |
| 2026-04-22 14:11 | 39.86190 | -74.38936 | 24043 ft | 414 kts | 223° |
| 2026-04-22 14:11 | 39.83861 | -74.41150 | 24390 ft | 416 kts | 223° |
| 2026-04-22 14:12 | 39.81578 | -74.43455 | 24739 ft | 414 kts | 228° |
| 2026-04-22 14:12 | 39.79544 | -74.46080 | 25098 ft | 412 kts | 232° |
| 2026-04-22 14:12 | 39.77539 | -74.48753 | 25440 ft | 414 kts | 232° |
| 2026-04-22 14:12 | 39.75518 | -74.51435 | 25784 ft | 416 kts | 232° |
| 2026-04-22 14:13 | 39.73486 | -74.54123 | 26125 ft | 418 kts | 232° |
| 2026-04-22 14:13 | 39.71441 | -74.56826 | 26464 ft | 420 kts | 232° |
| 2026-04-22 14:13 | 39.69387 | -74.59542 | 26785 ft | 423 kts | 232° |
| 2026-04-22 14:13 | 39.67324 | -74.62272 | 27113 ft | 425 kts | 232° |
| 2026-04-22 14:14 | 39.65248 | -74.65019 | 27429 ft | 427 kts | 232° |
| 2026-04-22 14:14 | 39.63164 | -74.67772 | 27740 ft | 429 kts | 232° |
| 2026-04-22 14:14 | 39.61066 | -74.70540 | 28036 ft | 431 kts | 232° |
| 2026-04-22 14:14 | 39.58956 | -74.73317 | 28350 ft | 433 kts | 231° |
| 2026-04-22 14:15 | 39.56834 | -74.76106 | 28645 ft | 435 kts | 231° |
| 2026-04-22 14:15 | 39.54701 | -74.78908 | 28929 ft | 438 kts | 231° |
| 2026-04-22 14:15 | 39.52560 | -74.81721 | 29216 ft | 440 kts | 231° |
| 2026-04-22 14:15 | 39.50407 | -74.84547 | 29511 ft | 442 kts | 231° |
| 2026-04-22 14:16 | 39.48245 | -74.87387 | 29786 ft | 444 kts | 232° |
| 2026-04-22 14:16 | 39.46081 | -74.90226 | 30143 ft | 443 kts | 231° |
| 2026-04-22 14:16 | 39.43912 | -74.93061 | 30514 ft | 442 kts | 231° |
| 2026-04-22 14:16 | 39.41749 | -74.95885 | 30839 ft | 442 kts | 231° |
| 2026-04-22 14:17 | 39.39587 | -74.98705 | 31184 ft | 441 kts | 231° |
| 2026-04-22 14:17 | 39.37428 | -75.01526 | 31524 ft | 441 kts | 232° |
| 2026-04-22 14:17 | 39.35275 | -75.04338 | 31855 ft | 440 kts | 231° |
| 2026-04-22 14:17 | 39.33117 | -75.07146 | 32190 ft | 440 kts | 231° |
| 2026-04-22 14:18 | 39.30960 | -75.09946 | 32523 ft | 440 kts | 231° |
| 2026-04-22 14:18 | 39.28787 | -75.12720 | 32848 ft | 440 kts | 230° |
| 2026-04-22 14:18 | 39.26547 | -75.15425 | 33181 ft | 441 kts | 229° |
| 2026-04-22 14:18 | 39.24264 | -75.18072 | 33502 ft | 442 kts | 228° |
| 2026-04-22 14:19 | 39.21961 | -75.20699 | 33817 ft | 442 kts | 227° |
| 2026-04-22 14:19 | 39.19663 | -75.23317 | 34128 ft | 441 kts | 228° |
| 2026-04-22 14:19 | 39.17369 | -75.25944 | 34386 ft | 440 kts | 228° |
| 2026-04-22 14:19 | 39.15089 | -75.28580 | 34624 ft | 440 kts | 228° |
| 2026-04-22 14:20 | 39.10547 | -75.33883 | 35087 ft | 441 kts | 228° |
| 2026-04-22 14:20 | 39.08274 | -75.36538 | 35302 ft | 441 kts | 228° |
| 2026-04-22 14:20 | 39.05994 | -75.39186 | 35527 ft | 443 kts | 226° |
| 2026-04-22 14:21 | 39.00664 | -75.43349 | 35939 ft | 457 kts | 206° |
| 2026-04-22 14:21 | 38.97601 | -75.44562 | 36086 ft | 465 kts | 196° |
| 2026-04-22 14:22 | 38.87915 | -75.46041 | 36125 ft | 467 kts | 191° |
| 2026-04-22 14:23 | 38.78228 | -75.47362 | 36131 ft | 466 kts | 191° |
| 2026-04-22 14:23 | 38.71822 | -75.48243 | 36128 ft | 466 kts | 191° |
| 2026-04-22 14:24 | 38.65376 | -75.49119 | 36128 ft | 466 kts | 190° |
| 2026-04-22 14:24 | 38.58926 | -75.49993 | 36131 ft | 466 kts | 191° |
| 2026-04-22 14:25 | 38.52478 | -75.50872 | 36145 ft | 466 kts | 190° |
| 2026-04-22 14:25 | 38.46028 | -75.51753 | 36143 ft | 466 kts | 191° |
| 2026-04-22 14:26 | 38.39582 | -75.52634 | 36145 ft | 466 kts | 191° |
| 2026-04-22 14:26 | 38.33382 | -75.54570 | 36140 ft | 454 kts | 208° |
| 2026-04-22 14:27 | 38.27998 | -75.58537 | 36140 ft | 445 kts | 220° |
| 2026-04-22 14:27 | 38.22894 | -75.63003 | 36140 ft | 445 kts | 219° |
| 2026-04-22 14:28 | 38.17774 | -75.67444 | 36141 ft | 446 kts | 219° |
| 2026-04-22 14:28 | 38.12652 | -75.71886 | 36143 ft | 446 kts | 219° |
| 2026-04-22 14:29 | 38.07533 | -75.76328 | 36148 ft | 446 kts | 219° |
| 2026-04-22 14:29 | 38.02404 | -75.80760 | 36141 ft | 446 kts | 219° |
| 2026-04-22 14:30 | 37.97275 | -75.85182 | 36142 ft | 446 kts | 219° |
| 2026-04-22 14:30 | 37.92154 | -75.89606 | 36139 ft | 446 kts | 219° |
| 2026-04-22 14:31 | 37.87023 | -75.94031 | 36142 ft | 446 kts | 219° |
| 2026-04-22 14:31 | 37.81895 | -75.98442 | 36141 ft | 446 kts | 219° |
| 2026-04-22 14:32 | 37.76761 | -76.02852 | 36138 ft | 446 kts | 219° |
| 2026-04-22 14:32 | 37.71619 | -76.07252 | 36139 ft | 446 kts | 219° |
| 2026-04-22 14:33 | 37.66503 | -76.11686 | 36142 ft | 446 kts | 220° |
| 2026-04-22 14:33 | 37.61452 | -76.16212 | 36144 ft | 445 kts | 220° |
| 2026-04-22 14:34 | 37.56416 | -76.20751 | 36147 ft | 445 kts | 220° |
| 2026-04-22 14:34 | 37.51346 | -76.25263 | 36157 ft | 446 kts | 220° |
| 2026-04-22 14:35 | 37.46268 | -76.29743 | 36166 ft | 446 kts | 220° |
| 2026-04-22 14:35 | 37.41190 | -76.34217 | 36173 ft | 446 kts | 220° |
| 2026-04-22 14:36 | 37.36112 | -76.38690 | 36179 ft | 446 kts | 220° |
| 2026-04-22 14:36 | 37.31034 | -76.43162 | 36174 ft | 446 kts | 220° |
| 2026-04-22 14:37 | 37.25955 | -76.47619 | 36177 ft | 446 kts | 220° |
| 2026-04-22 14:37 | 37.20873 | -76.52075 | 36176 ft | 446 kts | 220° |
| 2026-04-22 14:38 | 37.15791 | -76.56526 | 36178 ft | 446 kts | 220° |
| 2026-04-22 14:38 | 37.10706 | -76.60971 | 36175 ft | 446 kts | 220° |
| 2026-04-22 14:39 | 37.05621 | -76.65409 | 36175 ft | 446 kts | 220° |
| 2026-04-22 14:39 | 37.00531 | -76.69843 | 36178 ft | 446 kts | 220° |
| 2026-04-22 14:40 | 36.92893 | -76.76483 | 36184 ft | 446 kts | 220° |
| 2026-04-22 14:40 | 36.87797 | -76.80897 | 36186 ft | 446 kts | 220° |
| 2026-04-22 14:41 | 36.82702 | -76.85314 | 36203 ft | 446 kts | 220° |
| 2026-04-22 14:41 | 36.77607 | -76.89727 | 36204 ft | 446 kts | 220° |
| 2026-04-22 14:42 | 36.72505 | -76.94125 | 36205 ft | 446 kts | 220° |
| 2026-04-22 14:42 | 36.68262 | -76.97772 | 36205 ft | 446 kts | 220° |
| 2026-04-22 14:43 | 36.63159 | -77.02159 | 36206 ft | 446 kts | 220° |
| 2026-04-22 14:43 | 36.58056 | -77.06548 | 36203 ft | 446 kts | 220° |
| 2026-04-22 14:44 | 36.52954 | -77.10927 | 36204 ft | 445 kts | 220° |
| 2026-04-22 14:44 | 36.47856 | -77.15301 | 36219 ft | 445 kts | 220° |
| 2026-04-22 14:45 | 36.42755 | -77.19661 | 36230 ft | 445 kts | 219° |
| 2026-04-22 14:45 | 36.37651 | -77.24012 | 36229 ft | 445 kts | 219° |
| 2026-04-22 14:46 | 36.32554 | -77.28350 | 36229 ft | 444 kts | 219° |
| 2026-04-22 14:46 | 36.27453 | -77.32680 | 36227 ft | 444 kts | 219° |
| 2026-04-22 14:47 | 36.22358 | -77.37009 | 36228 ft | 444 kts | 219° |
| 2026-04-22 14:47 | 36.17268 | -77.41333 | 36230 ft | 444 kts | 219° |
| 2026-04-22 14:48 | 36.12181 | -77.45650 | 36239 ft | 443 kts | 219° |
| 2026-04-22 14:48 | 36.07094 | -77.49957 | 36241 ft | 443 kts | 219° |
| 2026-04-22 14:49 | 36.02002 | -77.54253 | 36244 ft | 443 kts | 219° |
| 2026-04-22 14:49 | 35.96945 | -77.58506 | 36246 ft | 443 kts | 219° |
| 2026-04-22 14:50 | 35.91855 | -77.62774 | 36247 ft | 442 kts | 219° |
| 2026-04-22 14:50 | 35.86772 | -77.67038 | 36246 ft | 442 kts | 219° |
| 2026-04-22 14:51 | 35.81697 | -77.71307 | 36255 ft | 441 kts | 219° |
| 2026-04-22 14:51 | 35.76625 | -77.75555 | 36258 ft | 441 kts | 219° |
| 2026-04-22 14:52 | 35.71546 | -77.79791 | 36255 ft | 441 kts | 219° |
| 2026-04-22 14:52 | 35.66476 | -77.84030 | 36257 ft | 440 kts | 219° |
| 2026-04-22 14:53 | 35.61410 | -77.88260 | 36268 ft | 440 kts | 219° |
| 2026-04-22 14:53 | 35.56345 | -77.92478 | 36270 ft | 440 kts | 219° |
| 2026-04-22 14:54 | 35.51277 | -77.96687 | 36273 ft | 439 kts | 219° |
| 2026-04-22 14:54 | 35.46212 | -78.00888 | 36274 ft | 439 kts | 219° |
| 2026-04-22 14:55 | 35.41154 | -78.05077 | 36271 ft | 439 kts | 219° |
| 2026-04-22 14:55 | 35.36094 | -78.09258 | 36256 ft | 438 kts | 219° |
| 2026-04-22 14:56 | 35.31034 | -78.13429 | 36259 ft | 438 kts | 219° |
| 2026-04-22 14:56 | 35.25988 | -78.17595 | 36265 ft | 437 kts | 219° |
| 2026-04-22 14:57 | 35.20942 | -78.21754 | 36263 ft | 437 kts | 219° |
| 2026-04-22 14:57 | 35.15900 | -78.25892 | 36289 ft | 436 kts | 219° |
| 2026-04-22 14:58 | 35.10863 | -78.30028 | 36294 ft | 436 kts | 219° |
| 2026-04-22 14:58 | 35.05837 | -78.34162 | 36302 ft | 435 kts | 219° |
| 2026-04-22 14:59 | 35.00810 | -78.38276 | 36301 ft | 435 kts | 219° |
| 2026-04-22 14:59 | 34.95785 | -78.42378 | 36302 ft | 434 kts | 219° |
| 2026-04-22 15:00 | 34.90769 | -78.46461 | 36301 ft | 433 kts | 219° |
| 2026-04-22 15:00 | 34.85758 | -78.50534 | 36294 ft | 433 kts | 219° |
| 2026-04-22 15:01 | 34.80756 | -78.54603 | 36297 ft | 432 kts | 219° |
| 2026-04-22 15:01 | 34.75761 | -78.58661 | 36307 ft | 431 kts | 219° |
| 2026-04-22 15:02 | 34.70774 | -78.62703 | 36311 ft | 430 kts | 219° |
| 2026-04-22 15:02 | 34.65798 | -78.66735 | 36310 ft | 429 kts | 219° |
| 2026-04-22 15:03 | 34.60832 | -78.70751 | 36316 ft | 428 kts | 219° |
| 2026-04-22 15:03 | 34.55909 | -78.74730 | 36316 ft | 428 kts | 219° |
| 2026-04-22 15:04 | 34.50960 | -78.78720 | 36309 ft | 427 kts | 219° |
| 2026-04-22 15:04 | 34.46011 | -78.82693 | 36313 ft | 426 kts | 219° |
| 2026-04-22 15:05 | 34.41094 | -78.86695 | 36316 ft | 425 kts | 220° |
| 2026-04-22 15:05 | 34.36258 | -78.90795 | 36315 ft | 424 kts | 221° |
| 2026-04-22 15:06 | 34.31440 | -78.94906 | 36311 ft | 424 kts | 221° |
| 2026-04-22 15:06 | 34.26606 | -78.98991 | 36303 ft | 424 kts | 220° |
| 2026-04-22 15:07 | 34.21766 | -79.03058 | 36298 ft | 424 kts | 220° |
| 2026-04-22 15:07 | 34.16922 | -79.07122 | 36299 ft | 424 kts | 220° |
| 2026-04-22 15:08 | 34.12072 | -79.11184 | 36302 ft | 425 kts | 220° |
| 2026-04-22 15:08 | 34.07214 | -79.15253 | 36298 ft | 425 kts | 220° |
| 2026-04-22 15:09 | 34.02352 | -79.19320 | 36300 ft | 426 kts | 220° |
| 2026-04-22 15:09 | 33.97482 | -79.23389 | 36312 ft | 426 kts | 220° |
| 2026-04-22 15:10 | 33.92612 | -79.27461 | 36314 ft | 426 kts | 220° |
| 2026-04-22 15:10 | 33.87739 | -79.31523 | 36314 ft | 426 kts | 220° |
| 2026-04-22 15:11 | 33.82862 | -79.35574 | 36308 ft | 426 kts | 220° |
| 2026-04-22 15:11 | 33.77989 | -79.39627 | 36305 ft | 426 kts | 220° |
| 2026-04-22 15:12 | 33.73113 | -79.43676 | 36310 ft | 426 kts | 220° |
| 2026-04-22 15:12 | 33.68236 | -79.47710 | 36299 ft | 426 kts | 219° |
| 2026-04-22 15:13 | 33.63391 | -79.51715 | 36305 ft | 425 kts | 219° |
| 2026-04-22 15:13 | 33.58518 | -79.55740 | 36303 ft | 425 kts | 219° |
| 2026-04-22 15:14 | 33.53636 | -79.59753 | 36312 ft | 425 kts | 219° |
| 2026-04-22 15:14 | 33.48757 | -79.63763 | 36307 ft | 425 kts | 219° |
| 2026-04-22 15:15 | 33.43885 | -79.67780 | 36307 ft | 425 kts | 219° |
| 2026-04-22 15:15 | 33.39013 | -79.71790 | 36308 ft | 425 kts | 219° |
| 2026-04-22 15:16 | 33.34139 | -79.75794 | 36312 ft | 425 kts | 219° |
| 2026-04-22 15:16 | 33.29264 | -79.79786 | 36317 ft | 425 kts | 219° |
| 2026-04-22 15:17 | 33.24386 | -79.83773 | 36319 ft | 425 kts | 219° |
| 2026-04-22 15:17 | 33.19509 | -79.87759 | 36323 ft | 425 kts | 219° |
| 2026-04-22 15:18 | 33.14631 | -79.91735 | 36323 ft | 425 kts | 219° |
| 2026-04-22 15:18 | 33.09751 | -79.95710 | 36327 ft | 425 kts | 219° |
| 2026-04-22 15:19 | 33.04869 | -79.99675 | 36326 ft | 425 kts | 219° |
| 2026-04-22 15:19 | 32.99985 | -80.03634 | 36322 ft | 425 kts | 219° |
| 2026-04-22 15:20 | 32.95106 | -80.07595 | 36330 ft | 424 kts | 219° |
| 2026-04-22 15:20 | 32.90223 | -80.11550 | 36328 ft | 424 kts | 219° |
| 2026-04-22 15:21 | 32.85344 | -80.15503 | 36325 ft | 424 kts | 219° |
| 2026-04-22 15:21 | 32.80466 | -80.19446 | 36319 ft | 424 kts | 219° |
| 2026-04-22 15:22 | 32.75583 | -80.23386 | 36318 ft | 424 kts | 219° |
| 2026-04-22 15:22 | 32.70693 | -80.27318 | 36316 ft | 424 kts | 219° |
| 2026-04-22 15:23 | 32.65810 | -80.31250 | 36313 ft | 424 kts | 219° |
| 2026-04-22 15:23 | 32.60920 | -80.35176 | 36309 ft | 425 kts | 218° |
| 2026-04-22 15:24 | 32.55989 | -80.39040 | 36310 ft | 426 kts | 216° |
| 2026-04-22 15:24 | 32.50842 | -80.42566 | 36311 ft | 428 kts | 213° |
| 2026-04-22 15:25 | 32.45616 | -80.45955 | 36315 ft | 428 kts | 213° |
| 2026-04-22 15:25 | 32.40410 | -80.49393 | 36314 ft | 428 kts | 214° |
| 2026-04-22 15:26 | 32.35235 | -80.52891 | 36322 ft | 428 kts | 214° |
| 2026-04-22 15:26 | 32.30061 | -80.56392 | 36333 ft | 428 kts | 214° |
| 2026-04-22 15:27 | 32.24879 | -80.59871 | 36342 ft | 428 kts | 214° |
| 2026-04-22 15:27 | 32.19695 | -80.63341 | 36344 ft | 428 kts | 214° |
| 2026-04-22 15:28 | 32.14519 | -80.66810 | 36346 ft | 428 kts | 214° |
| 2026-04-22 15:28 | 32.10218 | -80.69694 | 36343 ft | 428 kts | 214° |
| 2026-04-22 15:29 | 32.05045 | -80.73147 | 36336 ft | 427 kts | 214° |
| 2026-04-22 15:30 | 31.97293 | -80.78310 | 36324 ft | 426 kts | 214° |
| 2026-04-22 15:30 | 31.92135 | -80.81742 | 36308 ft | 425 kts | 215° |
| 2026-04-22 15:31 | 31.86990 | -80.85168 | 36311 ft | 425 kts | 215° |
| 2026-04-22 15:31 | 31.81846 | -80.88581 | 36311 ft | 424 kts | 215° |
| 2026-04-22 15:32 | 31.76722 | -80.91990 | 36310 ft | 423 kts | 215° |
| 2026-04-22 15:32 | 31.71599 | -80.95385 | 36312 ft | 422 kts | 215° |
| 2026-04-22 15:33 | 31.66482 | -80.98773 | 36311 ft | 422 kts | 215° |
| 2026-04-22 15:33 | 31.61370 | -81.02149 | 36328 ft | 421 kts | 215° |
| 2026-04-22 15:34 | 31.56249 | -81.05487 | 36319 ft | 421 kts | 214° |
| 2026-04-22 15:34 | 31.51051 | -81.08682 | 36307 ft | 422 kts | 213° |
| 2026-04-22 15:34 | 31.48438 | -81.10253 | 36095 ft | 422 kts | 213° |
| 2026-04-22 15:35 | 31.45829 | -81.11820 | 35842 ft | 421 kts | 213° |
| 2026-04-22 15:35 | 31.43225 | -81.13397 | 35603 ft | 421 kts | 213° |
| 2026-04-22 15:35 | 31.40624 | -81.14982 | 35359 ft | 421 kts | 214° |
| 2026-04-22 15:35 | 31.38026 | -81.16572 | 35118 ft | 422 kts | 214° |
| 2026-04-22 15:36 | 31.35420 | -81.18153 | 34890 ft | 422 kts | 213° |
| 2026-04-22 15:36 | 31.32802 | -81.19722 | 34658 ft | 423 kts | 213° |
| 2026-04-22 15:36 | 31.30174 | -81.21276 | 34413 ft | 423 kts | 213° |
| 2026-04-22 15:36 | 31.27545 | -81.22823 | 34154 ft | 424 kts | 213° |
| 2026-04-22 15:37 | 31.24911 | -81.24375 | 33885 ft | 424 kts | 213° |
| 2026-04-22 15:37 | 31.22275 | -81.25926 | 33617 ft | 426 kts | 212° |
| 2026-04-22 15:37 | 31.19502 | -81.27223 | 33351 ft | 433 kts | 203° |
| 2026-04-22 15:37 | 31.16536 | -81.28020 | 33088 ft | 442 kts | 194° |
| 2026-04-22 15:38 | 31.13444 | -81.28268 | 32829 ft | 450 kts | 186° |
| 2026-04-22 15:38 | 31.07167 | -81.28249 | 32304 ft | 451 kts | 186° |
| 2026-04-22 15:38 | 31.04038 | -81.28240 | 32053 ft | 449 kts | 186° |
| 2026-04-22 15:39 | 31.00917 | -81.28229 | 31805 ft | 448 kts | 186° |
| 2026-04-22 15:39 | 30.97810 | -81.28215 | 31550 ft | 446 kts | 186° |
| 2026-04-22 15:39 | 30.94714 | -81.28201 | 31304 ft | 444 kts | 186° |
| 2026-04-22 15:39 | 30.91626 | -81.28190 | 31059 ft | 443 kts | 186° |
| 2026-04-22 15:40 | 30.88555 | -81.28183 | 30817 ft | 441 kts | 186° |
| 2026-04-22 15:40 | 30.85491 | -81.28181 | 30581 ft | 439 kts | 186° |
| 2026-04-22 15:40 | 30.82444 | -81.28178 | 30361 ft | 437 kts | 186° |
| 2026-04-22 15:40 | 30.79407 | -81.28173 | 30310 ft | 436 kts | 186° |
| 2026-04-22 15:41 | 30.73331 | -81.28153 | 30328 ft | 437 kts | 186° |
| 2026-04-22 15:41 | 30.67295 | -81.28132 | 30333 ft | 437 kts | 186° |
| 2026-04-22 15:42 | 30.61222 | -81.28122 | 30330 ft | 436 kts | 186° |
| 2026-04-22 15:42 | 30.55136 | -81.27899 | 30328 ft | 439 kts | 183° |
| 2026-04-22 15:43 | 30.49031 | -81.27363 | 30323 ft | 440 kts | 181° |
| 2026-04-22 15:43 | 30.45981 | -81.27075 | 30061 ft | 439 kts | 182° |
| 2026-04-22 15:43 | 30.42947 | -81.26804 | 29778 ft | 436 kts | 182° |
| 2026-04-22 15:44 | 30.39932 | -81.26554 | 29502 ft | 433 kts | 182° |
| 2026-04-22 15:44 | 30.36932 | -81.26308 | 29228 ft | 431 kts | 182° |
| 2026-04-22 15:44 | 30.33946 | -81.26030 | 28954 ft | 430 kts | 180° |
| 2026-04-22 15:44 | 30.30971 | -81.25706 | 28682 ft | 428 kts | 181° |
| 2026-04-22 15:45 | 30.28013 | -81.25432 | 28417 ft | 425 kts | 182° |
| 2026-04-22 15:45 | 30.25068 | -81.25200 | 28156 ft | 423 kts | 182° |
| 2026-04-22 15:45 | 30.22137 | -81.24989 | 27828 ft | 421 kts | 182° |
| 2026-04-22 15:45 | 30.19221 | -81.24785 | 27469 ft | 418 kts | 182° |
| 2026-04-22 15:46 | 30.16326 | -81.24583 | 27122 ft | 416 kts | 182° |
| 2026-04-22 15:46 | 30.13443 | -81.24375 | 26772 ft | 414 kts | 182° |
| 2026-04-22 15:46 | 30.10575 | -81.24157 | 26430 ft | 412 kts | 182° |
| 2026-04-22 15:46 | 30.07722 | -81.23932 | 26090 ft | 410 kts | 182° |
| 2026-04-22 15:47 | 30.04888 | -81.23705 | 25755 ft | 408 kts | 181° |
| 2026-04-22 15:47 | 30.02064 | -81.23479 | 25425 ft | 406 kts | 181° |
| 2026-04-22 15:47 | 29.99254 | -81.23258 | 25096 ft | 404 kts | 181° |
| 2026-04-22 15:47 | 29.96456 | -81.23041 | 24772 ft | 402 kts | 181° |
| 2026-04-22 15:48 | 29.93668 | -81.22826 | 24449 ft | 401 kts | 181° |
| 2026-04-22 15:48 | 29.90887 | -81.22613 | 24133 ft | 400 kts | 181° |
| 2026-04-22 15:48 | 29.88119 | -81.22404 | 23798 ft | 398 kts | 181° |
| 2026-04-22 15:48 | 29.85360 | -81.22195 | 23416 ft | 396 kts | 181° |
| 2026-04-22 15:49 | 29.82615 | -81.21986 | 23044 ft | 394 kts | 181° |
| 2026-04-22 15:49 | 29.79888 | -81.21774 | 22676 ft | 392 kts | 181° |
| 2026-04-22 15:49 | 29.77178 | -81.21562 | 22311 ft | 389 kts | 181° |
| 2026-04-22 15:49 | 29.74487 | -81.21352 | 21951 ft | 386 kts | 181° |
| 2026-04-22 15:50 | 29.71813 | -81.21144 | 21585 ft | 384 kts | 180° |
| 2026-04-22 15:50 | 29.69159 | -81.20940 | 21238 ft | 381 kts | 180° |
| 2026-04-22 15:50 | 29.66524 | -81.20737 | 20894 ft | 378 kts | 180° |
| 2026-04-22 15:50 | 29.63909 | -81.20536 | 20554 ft | 375 kts | 180° |
| 2026-04-22 15:51 | 29.61316 | -81.20339 | 20216 ft | 372 kts | 180° |
| 2026-04-22 15:51 | 29.58744 | -81.20142 | 19884 ft | 369 kts | 180° |
| 2026-04-22 15:51 | 29.56190 | -81.19943 | 19556 ft | 366 kts | 179° |
| 2026-04-22 15:51 | 29.53692 | -81.19749 | 19233 ft | 363 kts | 179° |
| 2026-04-22 15:52 | 29.51180 | -81.19556 | 18911 ft | 360 kts | 179° |
| 2026-04-22 15:52 | 29.48688 | -81.19366 | 18578 ft | 358 kts | 179° |
| 2026-04-22 15:52 | 29.46215 | -81.19177 | 18180 ft | 355 kts | 179° |
| 2026-04-22 15:52 | 29.43759 | -81.18989 | 17784 ft | 353 kts | 179° |
| 2026-04-22 15:53 | 29.41316 | -81.18802 | 17394 ft | 351 kts | 178° |
| 2026-04-22 15:53 | 29.38886 | -81.18614 | 17007 ft | 349 kts | 178° |
| 2026-04-22 15:53 | 29.36467 | -81.18427 | 16614 ft | 348 kts | 178° |
| 2026-04-22 15:53 | 29.34053 | -81.18242 | 16243 ft | 347 kts | 178° |
| 2026-04-22 15:54 | 29.31651 | -81.18063 | 15870 ft | 345 kts | 178° |
| 2026-04-22 15:54 | 29.29256 | -81.17884 | 15502 ft | 344 kts | 178° |
| 2026-04-22 15:54 | 29.26872 | -81.17689 | 15135 ft | 343 kts | 177° |
| 2026-04-22 15:54 | 29.24499 | -81.17482 | 14780 ft | 342 kts | 177° |
| 2026-04-22 15:55 | 29.22134 | -81.17269 | 14429 ft | 340 kts | 177° |
| 2026-04-22 15:55 | 29.19778 | -81.17037 | 14075 ft | 339 kts | 174° |
| 2026-04-22 15:55 | 29.17487 | -81.16410 | 13682 ft | 339 kts | 162° |
| 2026-04-22 15:55 | 29.15287 | -81.15463 | 13250 ft | 334 kts | 161° |
| 2026-04-22 15:56 | 29.13151 | -81.14543 | 12817 ft | 323 kts | 160° |
| 2026-04-22 15:56 | 29.11076 | -81.13651 | 12349 ft | 315 kts | 160° |
| 2026-04-22 15:56 | 29.09047 | -81.12785 | 11938 ft | 308 kts | 160° |
| 2026-04-22 15:56 | 29.07062 | -81.11943 | 11704 ft | 301 kts | 160° |
| 2026-04-22 15:57 | 29.05119 | -81.11119 | 11461 ft | 295 kts | 159° |
| 2026-04-22 15:57 | 29.03209 | -81.10327 | 11214 ft | 290 kts | 160° |
| 2026-04-22 15:57 | 29.01305 | -81.09588 | 10971 ft | 288 kts | 161° |
| 2026-04-22 15:57 | 28.99405 | -81.08877 | 10739 ft | 287 kts | 161° |
| 2026-04-22 15:58 | 28.97502 | -81.08216 | 10499 ft | 286 kts | 167° |
| 2026-04-22 15:58 | 28.95534 | -81.07933 | 10264 ft | 285 kts | 173° |
| 2026-04-22 15:58 | 28.93563 | -81.07717 | 9987 ft | 285 kts | 172° |
| 2026-04-22 15:58 | 28.91596 | -81.07490 | 9558 ft | 284 kts | 172° |
| 2026-04-22 15:59 | 28.89621 | -81.07356 | 9101 ft | 287 kts | 181° |
| 2026-04-22 15:59 | 28.87661 | -81.07814 | 8736 ft | 288 kts | 198° |
| 2026-04-22 15:59 | 28.85879 | -81.08895 | 8263 ft | 292 kts | 213° |
| 2026-04-22 15:59 | 28.84239 | -81.10228 | 7929 ft | 289 kts | 213° |
| 2026-04-22 16:00 | 28.82590 | -81.11546 | 7519 ft | 291 kts | 212° |
| 2026-04-22 16:00 | 28.80931 | -81.12857 | 7217 ft | 288 kts | 212° |
| 2026-04-22 16:00 | 28.79304 | -81.14143 | 6934 ft | 281 kts | 212° |
| 2026-04-22 16:00 | 28.77718 | -81.15397 | 6634 ft | 273 kts | 212° |
| 2026-04-22 16:01 | 28.76223 | -81.16683 | 6326 ft | 266 kts | 217° |
| 2026-04-22 16:01 | 28.74829 | -81.18021 | 6055 ft | 259 kts | 218° |
| 2026-04-22 16:01 | 28.73485 | -81.19365 | 5801 ft | 255 kts | 219° |
| 2026-04-22 16:01 | 28.72167 | -81.20694 | 5552 ft | 251 kts | 219° |
| 2026-04-22 16:02 | 28.70866 | -81.21999 | 5303 ft | 248 kts | 218° |
| 2026-04-22 16:02 | 28.69577 | -81.23285 | 5052 ft | 245 kts | 218° |
| 2026-04-22 16:02 | 28.68291 | -81.24556 | 4719 ft | 246 kts | 218° |
| 2026-04-22 16:02 | 28.67008 | -81.25818 | 4424 ft | 241 kts | 218° |
| 2026-04-22 16:03 | 28.65751 | -81.27050 | 4092 ft | 237 kts | 218° |
| 2026-04-22 16:03 | 28.64511 | -81.28264 | 3790 ft | 233 kts | 218° |
| 2026-04-22 16:03 | 28.63300 | -81.29453 | 3544 ft | 228 kts | 218° |
| 2026-04-22 16:03 | 28.62110 | -81.30618 | 3294 ft | 224 kts | 217° |
| 2026-04-22 16:04 | 28.60940 | -81.31760 | 3069 ft | 218 kts | 217° |
| 2026-04-22 16:04 | 28.59718 | -81.32612 | 2987 ft | 195 kts | 195° |
| 2026-04-22 16:04 | 28.58449 | -81.32859 | 2764 ft | 179 kts | 174° |
| 2026-04-22 16:04 | 28.57224 | -81.32831 | 2506 ft | 175 kts | 175° |
| 2026-04-22 16:05 | 28.56420 | -81.32821 | 2349 ft | 174 kts | 175° |
| 2026-04-22 16:05 | 28.54817 | -81.32808 | 2043 ft | 171 kts | 175° |
| 2026-04-22 16:05 | 28.53635 | -81.32796 | 1809 ft | 167 kts | 175° |
| 2026-04-22 16:05 | 28.52508 | -81.32785 | 1618 ft | 156 kts | 175° |
| 2026-04-22 16:06 | 28.51443 | -81.32775 | 1390 ft | 151 kts | 174° |
| 2026-04-22 16:06 | 28.50413 | -81.32766 | 1200 ft | 145 kts | 174° |
| 2026-04-22 16:06 | 28.49395 | -81.32754 | 1000 ft | 148 kts | 173° |
| 2026-04-22 16:06 | 28.48365 | -81.32738 | 827 ft | 148 kts | 173° |
| 2026-04-22 16:07 | 28.47340 | -81.32729 | 647 ft | 146 kts | 174° |
| 2026-04-22 16:07 | 28.46318 | -81.32717 | 458 ft | 147 kts | 174° |
| 2026-04-22 16:07 | 28.45307 | -81.32704 | 253 ft | 144 kts | 172° |
| 2026-04-22 16:07 | 28.44312 | -81.32695 | 106 ft | 139 kts | 173° |
| 2026-04-22 16:08 | 28.43463 | -81.32685 | 100 ft | 99 kts | 179° |
| 2026-04-22 16:08 | 28.42940 | -81.32679 | 102 ft | 55 kts | 179° |
| 2026-04-22 16:08 | 28.42694 | -81.32661 | 99 ft | 29 kts | 161° |
| 2026-04-22 16:08 | 28.42579 | -81.32533 | 100 ft | 21 kts | 119° |
| 2026-04-22 16:09 | 28.42509 | -81.32395 | 101 ft | 20 kts | 120° |
| 2026-04-22 16:09 | 28.42443 | -81.32266 | 104 ft | 18 kts | 120° |
| 2026-04-22 16:09 | 28.42384 | -81.32148 | 106 ft | 17 kts | 120° |
| 2026-04-22 16:09 | 28.42344 | -81.32030 | 104 ft | 16 kts | 93° |
| 2026-04-22 16:10 | 28.42345 | -81.31893 | 101 ft | 18 kts | 89° |
| 2026-04-22 16:10 | 28.42347 | -81.31742 | 99 ft | 20 kts | 89° |
| 2026-04-22 16:10 | 28.42348 | -81.31636 | 98 ft | 21 kts | 89° |
| 2026-04-22 16:10 | 28.42350 | -81.31407 | 96 ft | 23 kts | 89° |
| 2026-04-22 16:11 | 28.42345 | -81.31223 | 94 ft | 24 kts | 95° |
| 2026-04-22 16:11 | 28.42319 | -81.31037 | 94 ft | 24 kts | 96° |
| 2026-04-22 16:11 | 28.42322 | -81.30872 | 94 ft | 18 kts | 85° |
| 2026-04-22 16:11 | 28.42332 | -81.30731 | 95 ft | 18 kts | 85° |
| 2026-04-22 16:12 | 28.42341 | -81.30596 | 96 ft | 17 kts | 85° |
| 2026-04-22 16:12 | 28.42351 | -81.30451 | 94 ft | 19 kts | 86° |
| 2026-04-22 16:12 | 28.42358 | -81.30301 | 94 ft | 19 kts | 87° |
| 2026-04-22 16:12 | 28.42359 | -81.30230 | 95 ft | 12 kts | 89° |
| 2026-04-22 16:13 | 28.42379 | -81.30145 | 96 ft | 11 kts | 34° |
| 2026-04-22 16:13 | 28.42433 | -81.30124 | 94 ft | 6 kts | 46° |
| 2026-04-22 16:13 | 28.42430 | -81.30046 | 94 ft | 9 kts | 93° |
| 2026-04-22 16:13 | 28.42435 | -81.29996 | 97 ft | 10 kts | 76° |
| 2026-04-22 16:14 | 28.42472 | -81.29927 | 95 ft | 12 kts | 46° |
| 2026-04-22 16:14 | 28.42551 | -81.29883 | 96 ft | 13 kts | 9° |
| 2026-04-22 16:14 | 28.42635 | -81.29882 | 96 ft | 12 kts | 360° |
| 2026-04-22 16:14 | 28.42706 | -81.29892 | 97 ft | 9 kts | 332° |
| 2026-04-22 16:15 | 28.42749 | -81.29942 | 96 ft | 9 kts | 310° |
| 2026-04-22 16:15 | 28.42783 | -81.29990 | 96 ft | 5 kts | 309° |
| 2026-04-22 16:15 | 28.42795 | -81.30007 | 95 ft | 2 kts | 309° |
| 2026-04-22 16:15 | 28.42799 | -81.30011 | 95 ft | 0 kts | 309° |